createdAt,value
2023-05-07T00:02:02.830Z,13.83
2023-05-07T00:04:30.326Z,14.00
2023-05-07T00:06:57.310Z,15.20
2023-05-07T00:09:24.323Z,15.57
2023-05-07T00:11:51.486Z,15.10
2023-05-07T00:14:18.425Z,15.47
2023-05-07T00:16:45.304Z,16.37
2023-05-07T00:19:12.447Z,17.33
2023-05-07T00:21:39.451Z,15.70
2023-05-07T00:24:06.561Z,15.87
2023-05-07T00:26:33.722Z,17.20
2023-05-07T00:29:00.638Z,17.00
2023-05-07T00:31:27.499Z,15.13
2023-05-07T00:33:54.552Z,14.17
2023-05-07T00:36:21.451Z,16.97
2023-05-07T00:38:48.406Z,17.47
2023-05-07T00:41:15.369Z,16.67
2023-05-07T00:43:42.263Z,18.70
2023-05-07T00:46:09.226Z,18.07
2023-05-07T00:48:36.332Z,20.63
2023-05-07T00:51:03.653Z,22.70
2023-05-07T00:53:31.653Z,18.47
2023-05-07T00:55:58.777Z,16.30
2023-05-07T00:58:25.875Z,18.70
2023-05-07T01:00:52.937Z,18.20
2023-05-07T01:03:20.209Z,17.57
2023-05-07T01:05:49.494Z,21.97
2023-05-07T01:08:17.634Z,16.87
2023-05-07T01:10:46.272Z,17.47
2023-05-07T01:13:15.130Z,20.50
2023-05-07T01:15:43.479Z,21.30
2023-05-07T01:18:11.169Z,19.70
2023-05-07T01:20:38.076Z,17.87
2023-05-07T01:23:06.526Z,17.10
2023-05-07T01:25:34.087Z,17.33
2023-05-07T01:28:03.280Z,15.97
2023-05-07T01:30:35.835Z,16.93
2023-05-07T01:33:11.991Z,15.00
2023-05-07T01:35:41.828Z,15.47
2023-05-07T01:38:09.619Z,15.77
2023-05-07T01:40:36.743Z,15.97
2023-05-07T01:43:04.654Z,18.60
2023-05-07T01:45:35.094Z,14.03
2023-05-07T01:48:03.135Z,14.43
2023-05-07T01:50:31.915Z,14.97
2023-05-07T01:52:59.051Z,14.90
2023-05-07T01:55:26.075Z,15.10
2023-05-07T01:57:53.047Z,16.30
2023-05-07T02:00:20.508Z,14.30
2023-05-07T02:02:47.608Z,16.43
2023-05-07T02:05:27.096Z,17.27
2023-05-07T02:08:02.399Z,16.97
2023-05-07T02:10:31.187Z,14.77
2023-05-07T02:12:59.182Z,13.40
2023-05-07T02:15:26.383Z,14.73
2023-05-07T02:18:07.847Z,15.37
2023-05-07T02:20:35.061Z,16.30
2023-05-07T02:23:02.782Z,14.77
2023-05-07T02:25:31.222Z,14.63
2023-05-07T02:27:59.642Z,16.13
2023-05-07T02:30:40.039Z,15.03
2023-05-07T02:33:08.312Z,17.10
2023-05-07T02:35:35.675Z,20.57
2023-05-07T02:38:03.138Z,16.60
2023-05-07T02:40:30.067Z,16.70
2023-05-07T02:42:57.178Z,15.80
2023-05-07T02:45:24.240Z,16.10
2023-05-07T02:47:53.965Z,16.43
2023-05-07T02:50:21.098Z,15.73
2023-05-07T02:52:48.792Z,15.40
2023-05-07T02:55:16.049Z,16.27
2023-05-07T02:57:43.026Z,17.47
2023-05-07T03:00:21.011Z,17.13
2023-05-07T03:03:00.465Z,15.03
2023-05-07T03:05:27.501Z,15.20
2023-05-07T03:07:54.363Z,17.63
2023-05-07T03:10:21.327Z,18.27
2023-05-07T03:12:48.322Z,13.73
2023-05-07T03:15:17.869Z,15.77
2023-05-07T03:17:44.874Z,22.43
2023-05-07T03:20:12.671Z,18.90
2023-05-07T03:22:41.689Z,17.57
2023-05-07T03:25:09.618Z,13.93
2023-05-07T03:27:36.517Z,16.57
2023-05-07T03:30:04.029Z,17.83
2023-05-07T03:32:30.955Z,16.27
2023-05-07T03:34:58.004Z,20.07
2023-05-07T03:37:24.974Z,19.77
2023-05-07T03:39:51.985Z,18.97
2023-05-07T03:42:20.221Z,17.33
2023-05-07T03:44:50.427Z,13.87
2023-05-07T03:47:17.580Z,14.33
2023-05-07T03:49:45.930Z,15.27
2023-05-07T03:52:13.954Z,17.80
2023-05-07T03:54:41.121Z,17.97
2023-05-07T03:57:08.240Z,17.10
2023-05-07T03:59:35.355Z,23.57
2023-05-07T04:02:05.208Z,19.20
2023-05-07T04:04:34.103Z,23.73
2023-05-07T04:07:01.778Z,20.97
2023-05-07T04:09:30.740Z,14.70
2023-05-07T04:11:58.693Z,19.13
2023-05-07T04:14:25.775Z,19.73
2023-05-07T04:16:53.141Z,19.00
2023-05-07T04:19:20.346Z,24.37
2023-05-07T04:21:50.640Z,20.70
2023-05-07T04:24:17.654Z,20.50
2023-05-07T04:26:46.595Z,20.33
2023-05-07T04:29:13.715Z,21.07
2023-05-07T04:31:40.988Z,21.13
2023-05-07T04:34:08.789Z,21.67
2023-05-07T04:36:35.685Z,22.70
2023-05-07T04:39:08.381Z,19.83
2023-05-07T04:41:37.620Z,22.73
2023-05-07T04:44:07.575Z,22.17
2023-05-07T04:46:35.906Z,20.10
2023-05-07T04:49:04.332Z,18.80
2023-05-07T04:51:33.683Z,21.20
2023-05-07T04:54:02.475Z,18.40
2023-05-07T04:56:31.254Z,19.03
2023-05-07T04:58:59.555Z,19.80
2023-05-07T05:01:26.738Z,24.07
2023-05-07T05:03:53.783Z,23.50
2023-05-07T05:06:21.404Z,18.63
2023-05-07T05:08:48.333Z,19.70
2023-05-07T05:11:16.025Z,21.87
2023-05-07T05:13:43.490Z,22.33
2023-05-07T05:16:16.623Z,20.57
2023-05-07T05:18:43.734Z,25.03
2023-05-07T05:21:12.915Z,20.50
2023-05-07T05:23:41.725Z,20.33
2023-05-07T05:26:09.479Z,21.00
2023-05-07T05:28:37.141Z,23.00
2023-05-07T05:31:05.155Z,21.50
2023-05-07T05:33:36.136Z,21.43
2023-05-07T05:36:06.112Z,20.77
2023-05-07T05:38:33.476Z,21.13
2023-05-07T05:41:01.119Z,21.67
2023-05-07T05:43:29.656Z,23.83
2023-05-07T05:45:57.492Z,24.70
2023-05-07T05:48:24.680Z,25.77
2023-05-07T05:50:52.017Z,23.87
2023-05-07T05:53:19.594Z,23.40
2023-05-07T05:55:46.949Z,25.77
2023-05-07T05:58:13.927Z,27.40
2023-05-07T06:00:47.096Z,22.67
2023-05-07T06:03:14.428Z,26.93
2023-05-07T06:05:42.655Z,25.30
2023-05-07T06:08:09.726Z,24.00
2023-05-07T06:10:38.610Z,25.10
2023-05-07T06:13:08.832Z,25.67
2023-05-07T06:15:37.813Z,25.70
2023-05-07T06:18:09.922Z,25.53
2023-05-07T06:20:37.623Z,26.80
2023-05-07T06:23:08.683Z,27.83
2023-05-07T06:25:35.822Z,25.83
2023-05-07T06:28:02.808Z,25.80
2023-05-07T06:30:30.965Z,30.87
2023-05-07T06:32:58.204Z,25.17
2023-05-07T06:35:26.442Z,24.83
2023-05-07T06:37:54.245Z,24.93
2023-05-07T06:40:24.821Z,27.77
2023-05-07T06:42:51.726Z,25.87
2023-05-07T06:45:45.281Z,24.50
2023-05-07T06:48:12.561Z,25.57
2023-05-07T06:50:49.957Z,23.90
2023-05-07T06:53:17.087Z,25.27
2023-05-07T06:55:44.418Z,22.83
2023-05-07T06:58:13.248Z,24.30
2023-05-07T07:00:41.817Z,25.07
2023-05-07T07:03:09.128Z,24.43
2023-05-07T07:05:36.764Z,23.97
2023-05-07T07:08:05.291Z,24.33
2023-05-07T07:10:32.342Z,26.20
2023-05-07T07:13:00.698Z,25.27
2023-05-07T07:15:29.711Z,23.00
2023-05-07T07:17:57.694Z,22.53
2023-05-07T07:20:25.674Z,26.63
2023-05-07T07:22:52.941Z,24.40
2023-05-07T07:25:19.822Z,22.83
2023-05-07T07:27:48.738Z,22.00
2023-05-07T07:30:16.635Z,20.87
2023-05-07T07:32:48.031Z,20.43
2023-05-07T07:35:16.070Z,21.63
2023-05-07T07:37:44.662Z,19.63
2023-05-07T07:40:13.844Z,19.53
2023-05-07T07:42:41.168Z,22.00
2023-05-07T07:45:09.322Z,20.23
2023-05-07T07:47:41.431Z,20.50
2023-05-07T07:50:09.769Z,18.87
2023-05-07T07:52:37.036Z,20.80
2023-05-07T07:55:04.489Z,20.13
2023-05-07T07:57:31.838Z,19.50
2023-05-07T07:59:58.946Z,18.33
2023-05-07T08:02:26.332Z,18.07
2023-05-07T08:04:53.410Z,18.20
2023-05-07T08:07:21.645Z,19.43
2023-05-07T08:09:49.819Z,18.80
2023-05-07T08:12:20.601Z,20.07
2023-05-07T08:14:47.625Z,18.37
2023-05-07T08:17:16.900Z,18.23
2023-05-07T08:19:45.063Z,17.00
2023-05-07T08:22:14.932Z,17.33
2023-05-07T08:24:42.183Z,17.97
2023-05-07T08:27:09.882Z,17.37
2023-05-07T08:29:37.301Z,18.23
2023-05-07T08:32:04.480Z,18.37
2023-05-07T08:34:31.588Z,16.63
2023-05-07T08:37:01.684Z,17.50
2023-05-07T08:39:29.913Z,16.30
2023-05-07T08:41:58.472Z,16.87
2023-05-07T08:44:31.163Z,17.23
2023-05-07T08:47:00.563Z,16.30
2023-05-07T08:49:29.245Z,14.63
2023-05-07T08:51:56.869Z,15.03
2023-05-07T08:54:26.160Z,17.90
2023-05-07T08:56:53.501Z,15.73
2023-05-07T08:59:21.032Z,16.63
2023-05-07T09:01:48.563Z,15.37
2023-05-07T09:04:16.788Z,20.10
2023-05-07T09:06:44.770Z,15.13
2023-05-07T09:09:18.567Z,26.03
2023-05-07T09:11:45.834Z,15.40
2023-05-07T09:14:15.428Z,15.53
2023-05-07T09:16:44.883Z,15.13
2023-05-07T09:19:12.536Z,13.50
2023-05-07T09:21:44.227Z,13.93
2023-05-07T09:24:12.762Z,13.60
2023-05-07T09:26:42.160Z,15.73
2023-05-07T09:29:11.702Z,15.77
2023-05-07T09:31:39.580Z,15.50
2023-05-07T09:34:09.277Z,15.17
2023-05-07T09:36:39.066Z,13.60
2023-05-07T09:39:06.373Z,13.83
2023-05-07T09:41:33.544Z,15.23
2023-05-07T09:44:10.693Z,14.20
2023-05-07T09:46:51.186Z,13.80
2023-05-07T09:49:25.159Z,12.57
2023-05-07T09:52:01.809Z,11.63
2023-05-07T09:54:32.370Z,11.27
2023-05-07T09:57:00.313Z,13.70
2023-05-07T09:59:32.393Z,14.97
2023-05-07T10:02:04.700Z,11.33
2023-05-07T10:04:35.523Z,12.03
2023-05-07T10:07:04.226Z,10.83
2023-05-07T10:09:32.013Z,10.57
2023-05-07T10:12:00.327Z,8.47
2023-05-07T10:14:30.145Z,8.70
2023-05-07T10:16:58.600Z,9.13
2023-05-07T10:19:27.434Z,8.83
2023-05-07T10:22:01.028Z,7.77
2023-05-07T10:24:37.891Z,6.77
2023-05-07T10:27:15.432Z,9.13
2023-05-07T10:30:13.014Z,7.07
2023-05-07T10:32:49.714Z,7.73
2023-05-07T10:35:32.920Z,9.90
2023-05-07T10:38:02.615Z,9.07
2023-05-07T10:40:32.831Z,6.00
2023-05-07T10:43:02.820Z,5.63
2023-05-07T10:45:35.506Z,5.63
2023-05-07T10:51:22.369Z,5.70
2023-05-07T10:54:16.534Z,5.97
2023-05-07T10:56:53.699Z,4.57
2023-05-07T10:59:32.858Z,6.20
2023-05-07T11:02:09.186Z,6.27
2023-05-07T11:05:24.165Z,5.97
2023-05-07T11:08:10.212Z,6.47
2023-05-07T11:10:53.752Z,5.87
2023-05-07T11:13:46.364Z,5.93
2023-05-07T11:16:33.827Z,5.87
2023-05-07T11:19:12.712Z,6.23
2023-05-07T11:21:44.664Z,8.67
2023-05-07T11:24:41.734Z,6.07
2023-05-07T11:27:09.844Z,5.40
2023-05-07T11:29:37.375Z,4.27
2023-05-07T11:32:09.201Z,4.33
2023-05-07T11:34:43.281Z,4.67
2023-05-07T11:37:10.691Z,8.43
2023-05-07T11:40:11.977Z,5.00
2023-05-07T11:42:41.109Z,4.67
2023-05-07T11:45:08.943Z,4.50
2023-05-07T11:47:36.256Z,4.90
2023-05-07T11:50:08.892Z,4.50
2023-05-07T11:52:36.833Z,4.10
2023-05-07T11:55:07.271Z,8.03
2023-05-07T11:57:35.665Z,4.23
2023-05-07T12:00:04.990Z,5.03
2023-05-07T12:02:39.801Z,4.37
2023-05-07T12:05:07.275Z,3.50
2023-05-07T12:07:35.079Z,3.63
2023-05-07T12:10:08.835Z,5.83
2023-05-07T12:12:43.223Z,4.30
2023-05-07T12:15:11.582Z,4.07
2023-05-07T12:17:39.404Z,4.20
2023-05-07T12:20:07.645Z,3.83
2023-05-07T12:22:34.566Z,3.90
2023-05-07T12:25:01.662Z,3.80
2023-05-07T12:27:28.670Z,4.20
2023-05-07T12:29:55.705Z,4.00
2023-05-07T12:32:23.253Z,5.10
2023-05-07T12:34:53.547Z,4.00
2023-05-07T12:37:28.584Z,4.03
2023-05-07T12:40:12.097Z,3.57
2023-05-07T12:42:41.151Z,5.47
2023-05-07T12:45:17.728Z,3.67
2023-05-07T12:47:46.282Z,3.37
2023-05-07T12:50:15.174Z,4.07
2023-05-07T12:52:42.178Z,3.03
2023-05-07T12:55:10.034Z,3.30
2023-05-07T12:57:41.682Z,3.87
2023-05-07T13:00:09.969Z,7.60
2023-05-07T13:02:41.743Z,3.27
2023-05-07T13:05:09.744Z,6.67
2023-05-07T13:07:38.099Z,4.40
2023-05-07T13:10:05.994Z,3.70
2023-05-07T13:12:33.187Z,4.37
2023-05-07T13:15:00.343Z,5.43
2023-05-07T13:17:27.399Z,3.40
2023-05-07T13:19:54.412Z,3.13
2023-05-07T13:22:21.254Z,3.00
2023-05-07T13:24:48.459Z,2.50
2023-05-07T13:27:15.355Z,2.73
2023-05-07T13:29:42.320Z,5.50
2023-05-07T13:32:09.313Z,3.60
2023-05-07T13:34:36.356Z,3.23
2023-05-07T13:37:03.219Z,3.70
2023-05-07T13:39:30.296Z,3.30
2023-05-07T13:41:57.151Z,4.73
2023-05-07T13:44:24.133Z,3.40
2023-05-07T13:46:51.470Z,3.67
2023-05-07T13:49:18.510Z,3.83
2023-05-07T13:51:45.562Z,5.60
2023-05-07T13:54:12.865Z,4.87
2023-05-07T13:56:39.989Z,3.80
2023-05-07T13:59:06.887Z,3.90
2023-05-07T14:01:33.913Z,3.90
2023-05-07T14:04:01.302Z,7.37
2023-05-07T14:06:28.355Z,5.77
2023-05-07T14:08:55.317Z,5.17
2023-05-07T14:11:22.308Z,4.10
2023-05-07T14:13:49.324Z,4.40
2023-05-07T14:16:16.390Z,4.20
2023-05-07T14:18:43.368Z,4.67
2023-05-07T14:21:12.922Z,3.87
2023-05-07T14:23:39.974Z,3.97
2023-05-07T14:26:06.900Z,4.33
2023-05-07T14:28:33.820Z,4.10
2023-05-07T14:31:01.246Z,4.37
2023-05-07T14:33:28.235Z,4.13
2023-05-07T14:35:55.795Z,4.43
2023-05-07T14:38:22.775Z,3.43
2023-05-07T14:40:49.853Z,3.80
2023-05-07T14:43:16.874Z,3.70
2023-05-07T14:45:43.784Z,5.50
2023-05-07T14:48:15.998Z,3.50
2023-05-07T14:50:43.648Z,3.73
2023-05-07T14:53:10.573Z,6.20
2023-05-07T14:55:37.693Z,6.20
2023-05-07T14:58:04.938Z,7.17
2023-05-07T15:00:34.512Z,4.17
2023-05-07T15:03:09.950Z,3.83
2023-05-07T15:05:37.928Z,3.80
2023-05-07T15:08:05.022Z,4.00
2023-05-07T15:10:32.035Z,4.70
2023-05-07T15:12:58.984Z,4.17
2023-05-07T15:15:26.095Z,3.77
2023-05-07T15:17:54.996Z,5.13
2023-05-07T15:20:22.040Z,4.93
2023-05-07T15:22:49.689Z,4.00
2023-05-07T15:25:16.995Z,6.67
2023-05-07T15:27:45.025Z,4.07
2023-05-07T15:30:13.341Z,3.70
2023-05-07T15:32:40.546Z,4.10
2023-05-07T15:35:08.637Z,4.80
2023-05-07T15:37:35.755Z,5.77
2023-05-07T15:40:07.467Z,4.73
2023-05-07T15:42:34.973Z,4.97
2023-05-07T15:45:02.380Z,4.53
2023-05-07T15:47:32.782Z,4.50
2023-05-07T15:49:59.744Z,6.03
2023-05-07T15:52:27.880Z,4.43
2023-05-07T15:54:55.258Z,7.77
2023-05-07T15:57:22.633Z,4.20
2023-05-07T15:59:49.492Z,4.37
2023-05-07T16:02:16.606Z,3.83
2023-05-07T16:04:43.563Z,4.07
2023-05-07T16:07:12.558Z,4.37
2023-05-07T16:09:39.952Z,3.90
2023-05-07T16:12:07.007Z,5.07
2023-05-07T16:14:33.859Z,7.80
2023-05-07T16:17:01.821Z,6.17
2023-05-07T16:19:29.854Z,7.73
2023-05-07T16:21:57.083Z,5.37
2023-05-07T16:24:23.996Z,4.57
2023-05-07T16:26:51.006Z,4.07
2023-05-07T16:29:17.960Z,4.00
2023-05-07T16:31:45.611Z,4.67
2023-05-07T16:34:12.557Z,3.90
2023-05-07T16:36:39.517Z,4.13
2023-05-07T16:39:06.703Z,4.37
2023-05-07T16:41:33.664Z,4.40
2023-05-07T16:44:00.673Z,3.03
2023-05-07T16:46:27.733Z,3.17
2023-05-07T16:48:55.030Z,4.23
2023-05-07T16:51:24.599Z,3.63
2023-05-07T16:53:51.684Z,3.80
2023-05-07T16:56:19.434Z,6.00
2023-05-07T16:58:46.342Z,4.10
2023-05-07T17:01:15.202Z,3.50
2023-05-07T17:03:42.348Z,4.33
2023-05-07T17:06:14.091Z,3.27
2023-05-07T17:08:44.823Z,4.33
2023-05-07T17:11:12.311Z,6.87
2023-05-07T17:13:40.225Z,4.43
2023-05-07T17:16:07.259Z,4.53
2023-05-07T17:18:35.146Z,3.20
2023-05-07T17:21:02.083Z,4.10
2023-05-07T17:23:29.191Z,3.57
2023-05-07T17:25:56.370Z,3.57
2023-05-07T17:28:23.294Z,3.73
2023-05-07T17:30:50.249Z,3.23
2023-05-07T17:33:21.478Z,7.67
2023-05-07T17:35:49.471Z,4.10
2023-05-07T17:38:16.500Z,4.20
2023-05-07T17:40:43.522Z,3.80
2023-05-07T17:43:10.501Z,4.33
2023-05-07T17:45:37.521Z,6.03
2023-05-07T17:48:05.493Z,4.33
2023-05-07T17:50:32.586Z,5.43
2023-05-07T17:53:00.127Z,3.83
2023-05-07T17:55:27.090Z,4.70
2023-05-07T17:57:54.140Z,4.77
2023-05-07T18:00:21.516Z,4.43
2023-05-07T18:02:51.249Z,4.27
2023-05-07T18:05:18.356Z,6.17
2023-05-07T18:07:45.714Z,4.43
2023-05-07T18:10:12.966Z,5.47
2023-05-07T18:12:40.382Z,4.50
2023-05-07T18:15:07.957Z,4.17
2023-05-07T18:17:34.905Z,5.33
2023-05-07T18:20:02.770Z,8.17
2023-05-07T18:22:29.763Z,6.60
2023-05-07T18:24:56.660Z,5.40
2023-05-07T18:27:23.769Z,6.37
2023-05-07T18:29:50.845Z,7.50
2023-05-07T18:32:17.775Z,7.20
2023-05-07T18:34:44.717Z,7.97
2023-05-07T18:37:11.837Z,6.40
2023-05-07T18:39:38.793Z,5.57
2023-05-07T18:42:06.666Z,6.53
2023-05-07T18:44:37.490Z,6.07
2023-05-07T18:47:07.793Z,5.23
2023-05-07T18:49:35.576Z,5.37
2023-05-07T18:52:02.731Z,5.90
2023-05-07T18:54:29.688Z,5.30
2023-05-07T18:56:58.330Z,7.13
2023-05-07T18:59:25.270Z,4.93
2023-05-07T19:01:52.287Z,5.97
2023-05-07T19:04:20.244Z,6.20
2023-05-07T19:06:47.527Z,7.93
2023-05-07T19:09:14.649Z,8.30
2023-05-07T19:11:42.119Z,6.87
2023-05-07T19:14:11.048Z,7.43
2023-05-07T19:16:38.529Z,7.27
2023-05-07T19:19:05.734Z,7.63
2023-05-07T19:21:32.854Z,9.20
2023-05-07T19:23:59.784Z,7.37
2023-05-07T19:26:26.762Z,8.23
2023-05-07T19:29:01.722Z,7.50
2023-05-07T19:31:34.211Z,8.40
2023-05-07T19:34:01.543Z,7.80
2023-05-07T19:36:28.601Z,7.67
2023-05-07T19:38:55.729Z,7.67
2023-05-07T19:41:23.070Z,7.90
2023-05-07T19:43:49.980Z,7.10
2023-05-07T19:46:17.242Z,7.67
2023-05-07T19:48:44.997Z,8.43
2023-05-07T19:51:11.934Z,7.40
2023-05-07T19:53:39.047Z,7.83
2023-05-07T19:56:10.663Z,8.10
2023-05-07T19:58:38.599Z,9.43
2023-05-07T20:01:06.406Z,9.10
2023-05-07T20:03:34.786Z,9.33
2023-05-07T20:06:02.678Z,8.30
2023-05-07T20:08:29.833Z,8.47
2023-05-07T20:10:58.801Z,8.77
2023-05-07T20:13:27.281Z,10.80
2023-05-07T20:16:01.581Z,8.40
2023-05-07T20:18:29.509Z,8.30
2023-05-07T20:20:56.750Z,8.50
2023-05-07T20:23:23.915Z,9.27
2023-05-07T20:25:50.918Z,8.93
2023-05-07T20:28:18.057Z,8.77
2023-05-07T20:30:45.052Z,12.37
2023-05-07T20:33:12.686Z,9.10
2023-05-07T20:35:39.754Z,8.57
2023-05-07T20:38:06.888Z,8.60
2023-05-07T20:40:36.974Z,9.20
2023-05-07T20:43:06.675Z,9.73
2023-05-07T20:45:33.791Z,9.70
2023-05-07T20:48:01.126Z,10.63
2023-05-07T20:50:28.181Z,11.07
2023-05-07T20:52:55.400Z,11.50
2023-05-07T20:55:23.021Z,10.20
2023-05-07T20:57:50.107Z,10.70
2023-05-07T21:00:17.816Z,10.77
2023-05-07T21:02:45.364Z,11.97
2023-05-07T21:05:12.408Z,16.40
2023-05-07T21:07:39.674Z,13.80
2023-05-07T21:10:06.998Z,13.27
2023-05-07T21:12:33.956Z,12.93
2023-05-07T21:15:00.969Z,14.07
2023-05-07T21:17:30.532Z,15.07
2023-05-07T21:19:57.512Z,14.50
2023-05-07T21:22:24.442Z,14.17
2023-05-07T21:24:51.358Z,14.87
2023-05-07T21:27:18.291Z,15.43
2023-05-07T21:29:46.149Z,14.93
2023-05-07T21:32:13.074Z,15.47
2023-05-07T21:34:39.928Z,15.33
2023-05-07T21:37:07.126Z,16.40
2023-05-07T21:39:34.002Z,16.63
2023-05-07T21:42:00.895Z,16.00
2023-05-07T21:44:29.832Z,16.20
2023-05-07T21:46:57.053Z,15.77
2023-05-07T21:49:23.949Z,19.73
2023-05-07T21:51:50.953Z,20.37
2023-05-07T21:54:18.052Z,17.37
2023-05-07T21:56:45.524Z,17.77
2023-05-07T21:59:12.673Z,16.37
2023-05-07T22:01:39.691Z,16.77
2023-05-07T22:04:07.004Z,16.87
2023-05-07T22:06:34.115Z,16.63
2023-05-07T22:09:01.014Z,16.80
2023-05-07T22:11:27.929Z,16.60
2023-05-07T22:13:55.085Z,17.20
2023-05-07T22:16:22.064Z,16.80
2023-05-07T22:18:49.626Z,16.20
2023-05-07T22:21:16.761Z,17.27
2023-05-07T22:23:43.657Z,16.80
2023-05-07T22:26:13.829Z,17.37
2023-05-07T22:28:41.033Z,18.43
2023-05-07T22:31:07.985Z,16.90
2023-05-07T22:33:35.222Z,14.87
2023-05-07T22:36:02.344Z,15.43
2023-05-07T22:38:29.384Z,19.67
2023-05-07T22:40:56.395Z,17.57
2023-05-07T22:43:23.299Z,15.93
2023-05-07T22:45:50.336Z,17.27
2023-05-07T22:48:17.328Z,16.93
2023-05-07T22:50:44.228Z,15.87
2023-05-07T22:53:11.085Z,17.73
2023-05-07T22:55:38.161Z,21.90
2023-05-07T22:58:05.135Z,14.47
2023-05-07T23:00:32.135Z,15.60
2023-05-07T23:02:59.052Z,20.20
2023-05-07T23:05:26.141Z,16.27
2023-05-07T23:07:53.038Z,19.00
2023-05-07T23:10:20.144Z,19.30
2023-05-07T23:12:49.337Z,20.30
2023-05-07T23:15:17.381Z,19.27
2023-05-07T23:17:45.370Z,19.40
2023-05-07T23:20:13.969Z,19.27
2023-05-07T23:22:41.097Z,20.60
2023-05-07T23:25:09.099Z,19.23
2023-05-07T23:27:36.206Z,19.53
2023-05-07T23:30:03.691Z,19.13
2023-05-07T23:32:33.700Z,19.57
2023-05-07T23:35:01.034Z,19.17
2023-05-07T23:37:27.930Z,21.57
2023-05-07T23:39:55.086Z,18.07
2023-05-07T23:42:22.175Z,18.63
2023-05-07T23:44:49.249Z,17.77
2023-05-07T23:47:16.271Z,16.70
2023-05-07T23:49:43.354Z,15.37
2023-05-07T23:52:10.545Z,16.67
2023-05-07T23:54:37.540Z,15.03
2023-05-07T23:57:04.582Z,15.67
2023-05-07T23:59:31.495Z,22.10
